Granite Canon, Wyoming
Current Conditions -  °F | °C
As of 2:56 PM on Friday 19 Dec 2014 (Local Time) from KFEW Reporting Station
Clear Clear  
Wind Chill: -3°   Ceiling: Unl
Heat Index:   Visibility: 10mi
Dew Point: -11°   Wind: 18mph
Humidity: 39%   Direction: 290°WNW
Pressure: 29.95"   Gusts: 25mph
Location:  41.1°N, 105.14°W
Report Text: KFEW 192156Z AUTO 29016G22KT 10SM CLR 02/M11 A2995 RMK AO2 PK WND 29031/01 SLP175 T00231106 $
Loading
Personal Weather Stations






























Interactive Weather Map New forecast layout! Learn more

10-Day Weather Forecast

Advertisements
Track Severe Weather on mobile